sensor_id;sensor_type;location;lat;lon;timestamp;temperature;humidity
20680;DHT22;10499;47.494;7.608;2022-08-19T00:01:35;19.90;99.90
20680;DHT22;10499;47.494;7.608;2022-08-19T00:04:09;19.90;99.90
20680;DHT22;10499;47.494;7.608;2022-08-19T00:06:37;19.90;99.90
20680;DHT22;10499;47.494;7.608;2022-08-19T00:09:05;19.90;99.90
20680;DHT22;10499;47.494;7.608;2022-08-19T00:11:31;19.90;99.90
20680;DHT22;10499;47.494;7.608;2022-08-19T00:13:57;19.90;99.90
20680;DHT22;10499;47.494;7.608;2022-08-19T00:16:26;20.00;99.90
20680;DHT22;10499;47.494;7.608;2022-08-19T00:18:54;20.00;99.90
20680;DHT22;10499;47.494;7.608;2022-08-19T00:21:21;20.00;99.90
20680;DHT22;10499;47.494;7.608;2022-08-19T00:23:47;20.00;99.90
20680;DHT22;10499;47.494;7.608;2022-08-19T00:26:16;20.00;99.90
20680;DHT22;10499;47.494;7.608;2022-08-19T00:28:41;19.90;99.90
20680;DHT22;10499;47.494;7.608;2022-08-19T00:31:08;19.90;99.90
20680;DHT22;10499;47.494;7.608;2022-08-19T00:33:34;19.80;99.90
20680;DHT22;10499;47.494;7.608;2022-08-19T00:36:01;19.70;99.90
20680;DHT22;10499;47.494;7.608;2022-08-19T00:38:28;19.70;99.90
20680;DHT22;10499;47.494;7.608;2022-08-19T00:40:54;19.70;99.90
20680;DHT22;10499;47.494;7.608;2022-08-19T00:43:22;19.70;99.90
20680;DHT22;10499;47.494;7.608;2022-08-19T00:45:48;19.80;99.90
20680;DHT22;10499;47.494;7.608;2022-08-19T00:48:16;19.80;99.90
20680;DHT22;10499;47.494;7.608;2022-08-19T00:50:43;19.80;99.90
20680;DHT22;10499;47.494;7.608;2022-08-19T00:53:11;19.70;99.90
20680;DHT22;10499;47.494;7.608;2022-08-19T00:55:38;19.70;99.90
20680;DHT22;10499;47.494;7.608;2022-08-19T00:58:10;19.70;99.90
20680;DHT22;10499;47.494;7.608;2022-08-19T01:00:37;19.70;99.90
20680;DHT22;10499;47.494;7.608;2022-08-19T01:03:09;19.70;99.90
20680;DHT22;10499;47.494;7.608;2022-08-19T01:05:36;19.70;99.90
20680;DHT22;10499;47.494;7.608;2022-08-19T01:08:04;19.60;99.90
20680;DHT22;10499;47.494;7.608;2022-08-19T01:10:33;19.70;99.90
20680;DHT22;10499;47.494;7.608;2022-08-19T01:13:01;19.60;99.90
20680;DHT22;10499;47.494;7.608;2022-08-19T01:15:31;19.50;99.90
20680;DHT22;10499;47.494;7.608;2022-08-19T01:18:00;19.50;99.90
20680;DHT22;10499;47.494;7.608;2022-08-19T01:20:26;19.50;99.90
20680;DHT22;10499;47.494;7.608;2022-08-19T01:22:55;19.40;99.90
20680;DHT22;10499;47.494;7.608;2022-08-19T01:25:24;19.40;99.90
20680;DHT22;10499;47.494;7.608;2022-08-19T01:27:52;19.40;99.90
20680;DHT22;10499;47.494;7.608;2022-08-19T01:30:26;19.40;99.90
20680;DHT22;10499;47.494;7.608;2022-08-19T01:32:53;19.40;99.90
20680;DHT22;10499;47.494;7.608;2022-08-19T01:35:20;19.40;99.90
20680;DHT22;10499;47.494;7.608;2022-08-19T01:38:02;19.30;99.90
20680;DHT22;10499;47.494;7.608;2022-08-19T01:40:33;19.20;99.90
20680;DHT22;10499;47.494;7.608;2022-08-19T01:42:59;19.20;99.90
20680;DHT22;10499;47.494;7.608;2022-08-19T01:45:27;19.20;99.90
20680;DHT22;10499;47.494;7.608;2022-08-19T01:47:54;19.20;99.90
20680;DHT22;10499;47.494;7.608;2022-08-19T01:50:20;19.20;99.90
20680;DHT22;10499;47.494;7.608;2022-08-19T01:52:47;19.20;99.90
20680;DHT22;10499;47.494;7.608;2022-08-19T01:55:17;19.20;99.90
20680;DHT22;10499;47.494;7.608;2022-08-19T01:57:47;19.10;99.90
20680;DHT22;10499;47.494;7.608;2022-08-19T02:00:15;19.20;99.90
20680;DHT22;10499;47.494;7.608;2022-08-19T02:02:42;19.20;99.90
20680;DHT22;10499;47.494;7.608;2022-08-19T02:05:08;19.30;99.90
20680;DHT22;10499;47.494;7.608;2022-08-19T02:07:36;19.40;99.90
20680;DHT22;10499;47.494;7.608;2022-08-19T02:10:05;19.50;99.90
20680;DHT22;10499;47.494;7.608;2022-08-19T02:12:31;19.50;99.90
20680;DHT22;10499;47.494;7.608;2022-08-19T02:14:58;19.50;99.90
20680;DHT22;10499;47.494;7.608;2022-08-19T02:17:24;19.50;99.90
20680;DHT22;10499;47.494;7.608;2022-08-19T02:19:49;19.60;99.90
20680;DHT22;10499;47.494;7.608;2022-08-19T02:22:15;19.60;99.90
20680;DHT22;10499;47.494;7.608;2022-08-19T02:24:41;19.60;99.90
20680;DHT22;10499;47.494;7.608;2022-08-19T02:27:06;19.60;99.90
20680;DHT22;10499;47.494;7.608;2022-08-19T02:29:32;19.70;99.90
20680;DHT22;10499;47.494;7.608;2022-08-19T02:31:57;19.70;99.90
20680;DHT22;10499;47.494;7.608;2022-08-19T02:34:24;19.70;99.90
20680;DHT22;10499;47.494;7.608;2022-08-19T02:36:51;19.60;99.90
20680;DHT22;10499;47.494;7.608;2022-08-19T02:39:17;19.60;99.90
20680;DHT22;10499;47.494;7.608;2022-08-19T02:41:43;19.50;99.90
20680;DHT22;10499;47.494;7.608;2022-08-19T02:44:08;19.40;99.90
20680;DHT22;10499;47.494;7.608;2022-08-19T02:46:34;19.40;99.90
20680;DHT22;10499;47.494;7.608;2022-08-19T02:49:03;19.30;99.90
20680;DHT22;10499;47.494;7.608;2022-08-19T02:51:38;19.20;99.90
20680;DHT22;10499;47.494;7.608;2022-08-19T02:54:06;19.20;99.90
20680;DHT22;10499;47.494;7.608;2022-08-19T02:56:34;19.20;99.90
20680;DHT22;10499;47.494;7.608;2022-08-19T02:59:00;19.10;99.90
20680;DHT22;10499;47.494;7.608;2022-08-19T03:01:31;19.10;99.90
20680;DHT22;10499;47.494;7.608;2022-08-19T03:04:02;19.10;99.90
20680;DHT22;10499;47.494;7.608;2022-08-19T03:06:29;19.10;99.90
20680;DHT22;10499;47.494;7.608;2022-08-19T03:08:55;19.00;99.90
20680;DHT22;10499;47.494;7.608;2022-08-19T03:11:27;19.00;99.90
20680;DHT22;10499;47.494;7.608;2022-08-19T03:13:53;19.00;99.90
20680;DHT22;10499;47.494;7.608;2022-08-19T03:16:21;18.90;99.90
20680;DHT22;10499;47.494;7.608;2022-08-19T03:18:47;18.90;99.90
20680;DHT22;10499;47.494;7.608;2022-08-19T03:21:24;18.90;99.90
20680;DHT22;10499;47.494;7.608;2022-08-19T03:23:53;18.90;99.90
20680;DHT22;10499;47.494;7.608;2022-08-19T03:26:19;18.90;99.90
20680;DHT22;10499;47.494;7.608;2022-08-19T03:28:45;18.90;99.90
20680;DHT22;10499;47.494;7.608;2022-08-19T03:31:17;18.80;99.90
20680;DHT22;10499;47.494;7.608;2022-08-19T03:33:44;18.80;99.90
20680;DHT22;10499;47.494;7.608;2022-08-19T03:36:14;18.70;99.90
20680;DHT22;10499;47.494;7.608;2022-08-19T03:38:47;18.70;99.90
20680;DHT22;10499;47.494;7.608;2022-08-19T03:41:21;18.60;99.90
20680;DHT22;10499;47.494;7.608;2022-08-19T03:43:47;18.60;99.90
20680;DHT22;10499;47.494;7.608;2022-08-19T03:46:17;18.60;99.90
20680;DHT22;10499;47.494;7.608;2022-08-19T03:48:46;18.60;99.90
20680;DHT22;10499;47.494;7.608;2022-08-19T03:51:22;18.60;99.90
20680;DHT22;10499;47.494;7.608;2022-08-19T03:53:48;18.60;99.90
20680;DHT22;10499;47.494;7.608;2022-08-19T03:56:14;18.60;99.90
20680;DHT22;10499;47.494;7.608;2022-08-19T03:58:41;18.70;99.90
20680;DHT22;10499;47.494;7.608;2022-08-19T04:01:14;18.70;99.90
20680;DHT22;10499;47.494;7.608;2022-08-19T04:03:40;18.70;99.90
20680;DHT22;10499;47.494;7.608;2022-08-19T04:06:29;18.70;99.90
20680;DHT22;10499;47.494;7.608;2022-08-19T04:08:56;18.70;99.90
20680;DHT22;10499;47.494;7.608;2022-08-19T04:11:30;18.60;99.90
20680;DHT22;10499;47.494;7.608;2022-08-19T04:13:56;18.70;99.90
20680;DHT22;10499;47.494;7.608;2022-08-19T04:16:24;18.70;99.90
20680;DHT22;10499;47.494;7.608;2022-08-19T04:18:53;18.70;99.90
20680;DHT22;10499;47.494;7.608;2022-08-19T04:21:22;18.70;99.90
20680;DHT22;10499;47.494;7.608;2022-08-19T04:23:48;18.70;99.90
20680;DHT22;10499;47.494;7.608;2022-08-19T04:26:16;18.70;99.90
20680;DHT22;10499;47.494;7.608;2022-08-19T04:28:42;18.70;99.90
20680;DHT22;10499;47.494;7.608;2022-08-19T04:31:24;18.70;99.90
20680;DHT22;10499;47.494;7.608;2022-08-19T04:33:53;18.70;99.90
20680;DHT22;10499;47.494;7.608;2022-08-19T04:36:30;18.70;99.90
20680;DHT22;10499;47.494;7.608;2022-08-19T04:38:58;18.80;99.90
20680;DHT22;10499;47.494;7.608;2022-08-19T04:41:25;18.80;99.90
20680;DHT22;10499;47.494;7.608;2022-08-19T04:44:10;18.80;99.90
20680;DHT22;10499;47.494;7.608;2022-08-19T04:46:36;18.80;99.90
20680;DHT22;10499;47.494;7.608;2022-08-19T04:49:04;18.80;99.90
20680;DHT22;10499;47.494;7.608;2022-08-19T04:51:34;18.80;99.90
20680;DHT22;10499;47.494;7.608;2022-08-19T04:54:01;18.80;99.90
20680;DHT22;10499;47.494;7.608;2022-08-19T04:56:27;18.90;99.90
20680;DHT22;10499;47.494;7.608;2022-08-19T04:58:54;18.90;99.90
20680;DHT22;10499;47.494;7.608;2022-08-19T05:01:27;18.90;99.90
20680;DHT22;10499;47.494;7.608;2022-08-19T05:03:54;18.90;99.90
20680;DHT22;10499;47.494;7.608;2022-08-19T05:06:21;19.00;99.90
20680;DHT22;10499;47.494;7.608;2022-08-19T05:08:47;19.00;99.90
20680;DHT22;10499;47.494;7.608;2022-08-19T05:11:18;19.00;99.90
20680;DHT22;10499;47.494;7.608;2022-08-19T05:13:46;19.00;99.90
20680;DHT22;10499;47.494;7.608;2022-08-19T05:16:12;19.00;99.90
20680;DHT22;10499;47.494;7.608;2022-08-19T05:18:39;19.00;99.90
20680;DHT22;10499;47.494;7.608;2022-08-19T05:21:24;19.00;99.90
20680;DHT22;10499;47.494;7.608;2022-08-19T05:24:09;19.10;99.90
20680;DHT22;10499;47.494;7.608;2022-08-19T05:26:40;19.10;99.90
20680;DHT22;10499;47.494;7.608;2022-08-19T05:29:07;19.10;99.90
20680;DHT22;10499;47.494;7.608;2022-08-19T05:31:34;19.00;99.90
20680;DHT22;10499;47.494;7.608;2022-08-19T05:34:01;19.00;99.90
20680;DHT22;10499;47.494;7.608;2022-08-19T05:36:27;19.10;99.90
20680;DHT22;10499;47.494;7.608;2022-08-19T05:38:54;19.10;99.90
20680;DHT22;10499;47.494;7.608;2022-08-19T05:41:21;19.00;99.90
20680;DHT22;10499;47.494;7.608;2022-08-19T05:43:56;19.10;99.90
20680;DHT22;10499;47.494;7.608;2022-08-19T05:46:22;19.10;99.90
20680;DHT22;10499;47.494;7.608;2022-08-19T05:48:47;19.10;99.90
20680;DHT22;10499;47.494;7.608;2022-08-19T05:51:14;19.10;99.90
20680;DHT22;10499;47.494;7.608;2022-08-19T05:53:41;19.10;99.90
20680;DHT22;10499;47.494;7.608;2022-08-19T05:56:09;19.10;99.90
20680;DHT22;10499;47.494;7.608;2022-08-19T05:58:36;19.10;99.90
20680;DHT22;10499;47.494;7.608;2022-08-19T06:01:03;19.10;99.90
20680;DHT22;10499;47.494;7.608;2022-08-19T06:03:34;19.10;99.90
20680;DHT22;10499;47.494;7.608;2022-08-19T06:06:00;19.10;99.90
20680;DHT22;10499;47.494;7.608;2022-08-19T06:08:28;19.20;99.90
20680;DHT22;10499;47.494;7.608;2022-08-19T06:10:54;19.20;99.90
20680;DHT22;10499;47.494;7.608;2022-08-19T06:13:20;19.20;99.90
20680;DHT22;10499;47.494;7.608;2022-08-19T06:15:46;19.30;99.90
20680;DHT22;10499;47.494;7.608;2022-08-19T06:18:13;19.40;99.90
20680;DHT22;10499;47.494;7.608;2022-08-19T06:20:40;19.40;99.90
20680;DHT22;10499;47.494;7.608;2022-08-19T06:23:06;19.40;99.90
20680;DHT22;10499;47.494;7.608;2022-08-19T06:25:32;19.40;99.90
20680;DHT22;10499;47.494;7.608;2022-08-19T06:27:58;19.40;99.90
20680;DHT22;10499;47.494;7.608;2022-08-19T06:30:23;19.30;99.90
20680;DHT22;10499;47.494;7.608;2022-08-19T06:32:49;19.30;99.90
20680;DHT22;10499;47.494;7.608;2022-08-19T06:35:15;19.40;99.90
20680;DHT22;10499;47.494;7.608;2022-08-19T06:37:41;19.40;99.90
20680;DHT22;10499;47.494;7.608;2022-08-19T06:40:08;19.40;99.90
20680;DHT22;10499;47.494;7.608;2022-08-19T06:42:36;19.50;99.90
20680;DHT22;10499;47.494;7.608;2022-08-19T06:45:04;19.60;99.90
20680;DHT22;10499;47.494;7.608;2022-08-19T06:47:31;19.60;99.90
20680;DHT22;10499;47.494;7.608;2022-08-19T06:49:59;19.70;99.90
20680;DHT22;10499;47.494;7.608;2022-08-19T06:52:32;19.70;99.90
20680;DHT22;10499;47.494;7.608;2022-08-19T06:54:59;19.80;99.90
20680;DHT22;10499;47.494;7.608;2022-08-19T06:57:25;19.80;99.90
20680;DHT22;10499;47.494;7.608;2022-08-19T06:59:52;19.90;99.90
20680;DHT22;10499;47.494;7.608;2022-08-19T07:02:18;19.90;99.90
20680;DHT22;10499;47.494;7.608;2022-08-19T07:04:44;19.90;99.90
20680;DHT22;10499;47.494;7.608;2022-08-19T07:07:12;19.90;99.90
20680;DHT22;10499;47.494;7.608;2022-08-19T07:09:41;20.00;99.90
20680;DHT22;10499;47.494;7.608;2022-08-19T07:12:08;20.00;99.90
20680;DHT22;10499;47.494;7.608;2022-08-19T07:14:36;20.20;99.90
20680;DHT22;10499;47.494;7.608;2022-08-19T07:17:07;20.20;99.90
20680;DHT22;10499;47.494;7.608;2022-08-19T07:19:34;20.30;99.90
20680;DHT22;10499;47.494;7.608;2022-08-19T07:22:02;20.30;99.90
20680;DHT22;10499;47.494;7.608;2022-08-19T07:24:28;20.50;99.90
20680;DHT22;10499;47.494;7.608;2022-08-19T07:26:56;20.60;99.90
20680;DHT22;10499;47.494;7.608;2022-08-19T07:29:26;20.70;99.90
20680;DHT22;10499;47.494;7.608;2022-08-19T07:31:53;20.70;99.90
20680;DHT22;10499;47.494;7.608;2022-08-19T07:34:22;20.70;99.90
20680;DHT22;10499;47.494;7.608;2022-08-19T07:36:49;20.60;99.90
20680;DHT22;10499;47.494;7.608;2022-08-19T07:39:21;20.50;99.90
20680;DHT22;10499;47.494;7.608;2022-08-19T07:41:47;20.50;99.90
20680;DHT22;10499;47.494;7.608;2022-08-19T07:44:14;20.50;99.90
20680;DHT22;10499;47.494;7.608;2022-08-19T07:46:45;20.50;99.90
20680;DHT22;10499;47.494;7.608;2022-08-19T07:49:12;20.60;99.90
20680;DHT22;10499;47.494;7.608;2022-08-19T07:51:43;20.60;99.90
20680;DHT22;10499;47.494;7.608;2022-08-19T07:54:09;20.60;99.90
20680;DHT22;10499;47.494;7.608;2022-08-19T07:56:34;20.70;99.90
20680;DHT22;10499;47.494;7.608;2022-08-19T07:59:00;20.70;99.90
20680;DHT22;10499;47.494;7.608;2022-08-19T08:01:27;20.70;99.90
20680;DHT22;10499;47.494;7.608;2022-08-19T08:03:55;20.80;99.90
20680;DHT22;10499;47.494;7.608;2022-08-19T08:06:40;20.80;99.90
20680;DHT22;10499;47.494;7.608;2022-08-19T08:09:37;20.80;99.90
20680;DHT22;10499;47.494;7.608;2022-08-19T08:12:07;20.80;99.90
20680;DHT22;10499;47.494;7.608;2022-08-19T08:14:46;20.80;99.90
20680;DHT22;10499;47.494;7.608;2022-08-19T08:17:14;20.80;99.90
20680;DHT22;10499;47.494;7.608;2022-08-19T08:19:41;20.80;99.90
20680;DHT22;10499;47.494;7.608;2022-08-19T08:22:07;20.80;99.90
20680;DHT22;10499;47.494;7.608;2022-08-19T08:24:33;20.70;99.90
20680;DHT22;10499;47.494;7.608;2022-08-19T08:27:01;20.80;99.90
20680;DHT22;10499;47.494;7.608;2022-08-19T08:29:28;20.80;99.90
20680;DHT22;10499;47.494;7.608;2022-08-19T08:31:55;20.80;99.90
20680;DHT22;10499;47.494;7.608;2022-08-19T08:34:21;20.90;99.90
20680;DHT22;10499;47.494;7.608;2022-08-19T08:36:47;20.90;99.90
20680;DHT22;10499;47.494;7.608;2022-08-19T08:39:18;21.00;99.90
20680;DHT22;10499;47.494;7.608;2022-08-19T08:44:18;21.20;99.90
20680;DHT22;10499;47.494;7.608;2022-08-19T08:46:49;21.30;99.90
20680;DHT22;10499;47.494;7.608;2022-08-19T08:49:33;21.30;99.90
20680;DHT22;10499;47.494;7.608;2022-08-19T08:52:18;21.40;99.90
20680;DHT22;10499;47.494;7.608;2022-08-19T08:54:48;21.50;99.90
20680;DHT22;10499;47.494;7.608;2022-08-19T08:57:19;21.50;99.90
20680;DHT22;10499;47.494;7.608;2022-08-19T08:59:48;21.50;99.90
20680;DHT22;10499;47.494;7.608;2022-08-19T09:02:16;21.60;99.90
20680;DHT22;10499;47.494;7.608;2022-08-19T09:04:42;21.80;99.90
20680;DHT22;10499;47.494;7.608;2022-08-19T09:09:56;22.20;99.90
20680;DHT22;10499;47.494;7.608;2022-08-19T09:15:13;22.60;99.90
20680;DHT22;10499;47.494;7.608;2022-08-19T09:17:39;22.80;99.90
20680;DHT22;10499;47.494;7.608;2022-08-19T09:22:40;23.10;99.90
20680;DHT22;10499;47.494;7.608;2022-08-19T09:25:09;23.20;99.90
20680;DHT22;10499;47.494;7.608;2022-08-19T09:27:36;23.30;99.90
20680;DHT22;10499;47.494;7.608;2022-08-19T09:30:04;23.30;99.90
20680;DHT22;10499;47.494;7.608;2022-08-19T09:32:30;23.40;99.90
20680;DHT22;10499;47.494;7.608;2022-08-19T09:34:56;23.50;99.90
20680;DHT22;10499;47.494;7.608;2022-08-19T09:37:24;23.70;99.90
20680;DHT22;10499;47.494;7.608;2022-08-19T09:39:50;23.80;99.90
20680;DHT22;10499;47.494;7.608;2022-08-19T09:42:15;23.90;99.90
20680;DHT22;10499;47.494;7.608;2022-08-19T09:44:42;24.00;99.90
20680;DHT22;10499;47.494;7.608;2022-08-19T09:47:09;24.10;99.90
20680;DHT22;10499;47.494;7.608;2022-08-19T09:49:35;24.10;99.90
20680;DHT22;10499;47.494;7.608;2022-08-19T09:52:01;24.30;99.90
20680;DHT22;10499;47.494;7.608;2022-08-19T09:54:27;24.30;99.90
20680;DHT22;10499;47.494;7.608;2022-08-19T09:56:53;24.10;99.90
20680;DHT22;10499;47.494;7.608;2022-08-19T09:59:19;24.00;99.90
20680;DHT22;10499;47.494;7.608;2022-08-19T10:01:46;24.00;99.90
20680;DHT22;10499;47.494;7.608;2022-08-19T10:04:11;24.00;99.90
20680;DHT22;10499;47.494;7.608;2022-08-19T10:06:38;24.00;99.90
20680;DHT22;10499;47.494;7.608;2022-08-19T10:09:06;24.00;99.90
20680;DHT22;10499;47.494;7.608;2022-08-19T10:11:33;24.00;99.90
20680;DHT22;10499;47.494;7.608;2022-08-19T10:14:00;24.00;99.90
20680;DHT22;10499;47.494;7.608;2022-08-19T10:16:26;24.00;99.90
20680;DHT22;10499;47.494;7.608;2022-08-19T10:18:52;24.10;99.90
20680;DHT22;10499;47.494;7.608;2022-08-19T10:21:30;24.00;99.90
20680;DHT22;10499;47.494;7.608;2022-08-19T10:23:58;24.00;99.90
20680;DHT22;10499;47.494;7.608;2022-08-19T10:26:27;24.00;99.90
20680;DHT22;10499;47.494;7.608;2022-08-19T10:28:53;24.00;99.90
20680;DHT22;10499;47.494;7.608;2022-08-19T10:31:24;24.10;99.90
20680;DHT22;10499;47.494;7.608;2022-08-19T10:33:51;24.10;99.90
20680;DHT22;10499;47.494;7.608;2022-08-19T10:36:26;24.20;99.90
20680;DHT22;10499;47.494;7.608;2022-08-19T10:38:53;24.30;99.90
20680;DHT22;10499;47.494;7.608;2022-08-19T10:41:25;24.50;99.90
20680;DHT22;10499;47.494;7.608;2022-08-19T10:43:56;24.60;99.30
20680;DHT22;10499;47.494;7.608;2022-08-19T10:46:25;24.60;99.20
20680;DHT22;10499;47.494;7.608;2022-08-19T10:48:52;24.70;99.10
20680;DHT22;10499;47.494;7.608;2022-08-19T10:51:18;24.60;99.20
20680;DHT22;10499;47.494;7.608;2022-08-19T10:54:04;24.60;99.30
20680;DHT22;10499;47.494;7.608;2022-08-19T10:56:30;24.60;99.20
20680;DHT22;10499;47.494;7.608;2022-08-19T10:59:17;24.50;99.10
20680;DHT22;10499;47.494;7.608;2022-08-19T11:01:44;24.30;99.30
20680;DHT22;10499;47.494;7.608;2022-08-19T11:04:11;24.20;99.60
20680;DHT22;10499;47.494;7.608;2022-08-19T11:06:40;24.10;99.90
20680;DHT22;10499;47.494;7.608;2022-08-19T11:09:06;24.20;99.90
20680;DHT22;10499;47.494;7.608;2022-08-19T11:11:32;24.30;99.90
20680;DHT22;10499;47.494;7.608;2022-08-19T11:13:58;24.40;99.90
20680;DHT22;10499;47.494;7.608;2022-08-19T11:16:25;24.60;99.90
20680;DHT22;10499;47.494;7.608;2022-08-19T11:18:56;24.70;99.10
20680;DHT22;10499;47.494;7.608;2022-08-19T11:21:28;24.60;98.90
20680;DHT22;10499;47.494;7.608;2022-08-19T11:23:57;24.70;98.20
20680;DHT22;10499;47.494;7.608;2022-08-19T11:26:24;24.80;98.20
20680;DHT22;10499;47.494;7.608;2022-08-19T11:28:50;25.00;97.60
20680;DHT22;10499;47.494;7.608;2022-08-19T11:31:20;25.00;97.20
20680;DHT22;10499;47.494;7.608;2022-08-19T11:33:47;25.20;97.40
20680;DHT22;10499;47.494;7.608;2022-08-19T11:36:16;25.30;96.60
20680;DHT22;10499;47.494;7.608;2022-08-19T11:38:43;25.40;96.00
20680;DHT22;10499;47.494;7.608;2022-08-19T11:41:09;25.40;95.50
20680;DHT22;10499;47.494;7.608;2022-08-19T11:43:36;25.20;95.50
20680;DHT22;10499;47.494;7.608;2022-08-19T11:46:07;25.00;95.20
20680;DHT22;10499;47.494;7.608;2022-08-19T11:48:34;24.80;94.90
20680;DHT22;10499;47.494;7.608;2022-08-19T11:51:07;24.60;95.60
20680;DHT22;10499;47.494;7.608;2022-08-19T11:53:34;24.50;95.60
20680;DHT22;10499;47.494;7.608;2022-08-19T11:56:00;24.40;96.00
20680;DHT22;10499;47.494;7.608;2022-08-19T11:58:26;24.30;95.90
20680;DHT22;10499;47.494;7.608;2022-08-19T12:00:52;24.20;96.00
20680;DHT22;10499;47.494;7.608;2022-08-19T12:03:18;24.10;96.00
20680;DHT22;10499;47.494;7.608;2022-08-19T12:05:45;24.00;96.40
20680;DHT22;10499;47.494;7.608;2022-08-19T12:08:11;23.90;96.70
20680;DHT22;10499;47.494;7.608;2022-08-19T12:10:38;23.90;96.60
20680;DHT22;10499;47.494;7.608;2022-08-19T12:13:05;24.00;96.90
20680;DHT22;10499;47.494;7.608;2022-08-19T12:15:36;24.00;97.00
20680;DHT22;10499;47.494;7.608;2022-08-19T12:18:01;24.20;96.60
20680;DHT22;10499;47.494;7.608;2022-08-19T12:20:27;24.30;96.00
20680;DHT22;10499;47.494;7.608;2022-08-19T12:22:52;24.40;96.00
20680;DHT22;10499;47.494;7.608;2022-08-19T12:25:18;24.50;96.00
20680;DHT22;10499;47.494;7.608;2022-08-19T12:27:44;24.60;95.20
20680;DHT22;10499;47.494;7.608;2022-08-19T12:30:11;24.80;94.80
20680;DHT22;10499;47.494;7.608;2022-08-19T12:32:38;25.20;93.90
20680;DHT22;10499;47.494;7.608;2022-08-19T12:35:05;25.70;92.90
20680;DHT22;10499;47.494;7.608;2022-08-19T12:37:31;26.10;92.00
20680;DHT22;10499;47.494;7.608;2022-08-19T12:39:57;26.40;91.00
20680;DHT22;10499;47.494;7.608;2022-08-19T12:42:23;26.50;90.60
20680;DHT22;10499;47.494;7.608;2022-08-19T12:44:49;26.50;90.20
20680;DHT22;10499;47.494;7.608;2022-08-19T12:47:17;26.30;90.20
20680;DHT22;10499;47.494;7.608;2022-08-19T12:49:43;26.20;90.10
20680;DHT22;10499;47.494;7.608;2022-08-19T12:52:10;26.00;90.80
20680;DHT22;10499;47.494;7.608;2022-08-19T12:54:37;25.90;90.80
20680;DHT22;10499;47.494;7.608;2022-08-19T12:57:07;25.60;90.90
20680;DHT22;10499;47.494;7.608;2022-08-19T12:59:34;25.50;91.70
20680;DHT22;10499;47.494;7.608;2022-08-19T13:01:59;25.20;91.50
20680;DHT22;10499;47.494;7.608;2022-08-19T13:04:25;24.90;91.80
20680;DHT22;10499;47.494;7.608;2022-08-19T13:06:51;24.70;93.00
20680;DHT22;10499;47.494;7.608;2022-08-19T13:09:16;24.40;95.20
20680;DHT22;10499;47.494;7.608;2022-08-19T13:11:42;24.20;96.00
20680;DHT22;10499;47.494;7.608;2022-08-19T13:14:09;24.00;97.00
20680;DHT22;10499;47.494;7.608;2022-08-19T13:16:36;23.80;97.40
20680;DHT22;10499;47.494;7.608;2022-08-19T13:19:03;23.60;97.60
20680;DHT22;10499;47.494;7.608;2022-08-19T13:21:31;23.50;97.90
20680;DHT22;10499;47.494;7.608;2022-08-19T13:23:57;23.50;98.10
20680;DHT22;10499;47.494;7.608;2022-08-19T13:26:23;23.40;98.50
20680;DHT22;10499;47.494;7.608;2022-08-19T13:28:49;23.50;98.50
20680;DHT22;10499;47.494;7.608;2022-08-19T13:31:50;23.60;99.00
20680;DHT22;10499;47.494;7.608;2022-08-19T13:34:34;23.70;99.30
20680;DHT22;10499;47.494;7.608;2022-08-19T13:37:01;23.70;98.90
20680;DHT22;10499;47.494;7.608;2022-08-19T13:39:34;23.60;99.50
20680;DHT22;10499;47.494;7.608;2022-08-19T13:42:01;23.50;98.80
20680;DHT22;10499;47.494;7.608;2022-08-19T13:44:27;23.40;99.30
20680;DHT22;10499;47.494;7.608;2022-08-19T13:46:55;23.40;98.60
20680;DHT22;10499;47.494;7.608;2022-08-19T13:49:25;23.50;99.90
20680;DHT22;10499;47.494;7.608;2022-08-19T13:51:53;23.60;99.90
20680;DHT22;10499;47.494;7.608;2022-08-19T13:54:18;23.80;99.90
20680;DHT22;10499;47.494;7.608;2022-08-19T13:56:45;24.00;99.90
20680;DHT22;10499;47.494;7.608;2022-08-19T13:59:11;24.50;99.90
20680;DHT22;10499;47.494;7.608;2022-08-19T14:01:37;24.70;98.40
20680;DHT22;10499;47.494;7.608;2022-08-19T14:04:04;24.60;98.80
20680;DHT22;10499;47.494;7.608;2022-08-19T14:06:30;24.70;99.00
20680;DHT22;10499;47.494;7.608;2022-08-19T14:08:56;24.70;98.40
20680;DHT22;10499;47.494;7.608;2022-08-19T14:11:21;24.80;98.90
20680;DHT22;10499;47.494;7.608;2022-08-19T14:13:49;24.90;97.90
20680;DHT22;10499;47.494;7.608;2022-08-19T14:16:16;24.90;96.80
20680;DHT22;10499;47.494;7.608;2022-08-19T14:18:42;24.80;96.90
20680;DHT22;10499;47.494;7.608;2022-08-19T14:21:15;24.60;96.50
20680;DHT22;10499;47.494;7.608;2022-08-19T14:23:40;24.40;97.00
20680;DHT22;10499;47.494;7.608;2022-08-19T14:26:12;24.20;96.70
20680;DHT22;10499;47.494;7.608;2022-08-19T14:28:39;24.00;97.10
20680;DHT22;10499;47.494;7.608;2022-08-19T14:31:07;23.90;97.10
20680;DHT22;10499;47.494;7.608;2022-08-19T14:33:33;23.60;97.20
20680;DHT22;10499;47.494;7.608;2022-08-19T14:35:59;23.30;98.00
20680;DHT22;10499;47.494;7.608;2022-08-19T14:38:26;23.20;98.90
20680;DHT22;10499;47.494;7.608;2022-08-19T14:40:51;23.10;99.00
20680;DHT22;10499;47.494;7.608;2022-08-19T14:43:17;23.00;99.90
20680;DHT22;10499;47.494;7.608;2022-08-19T14:45:43;23.00;99.60
20680;DHT22;10499;47.494;7.608;2022-08-19T14:48:09;23.20;99.90
20680;DHT22;10499;47.494;7.608;2022-08-19T14:50:35;23.30;99.60
20680;DHT22;10499;47.494;7.608;2022-08-19T14:53:07;23.50;99.60
20680;DHT22;10499;47.494;7.608;2022-08-19T14:55:34;23.50;99.90
20680;DHT22;10499;47.494;7.608;2022-08-19T14:58:00;23.50;99.90
20680;DHT22;10499;47.494;7.608;2022-08-19T15:00:25;23.40;99.90
20680;DHT22;10499;47.494;7.608;2022-08-19T15:02:51;23.40;99.90
20680;DHT22;10499;47.494;7.608;2022-08-19T15:05:18;23.20;99.90
20680;DHT22;10499;47.494;7.608;2022-08-19T15:07:44;23.10;99.90
20680;DHT22;10499;47.494;7.608;2022-08-19T15:10:11;23.00;99.90
20680;DHT22;10499;47.494;7.608;2022-08-19T15:12:38;22.80;99.90
20680;DHT22;10499;47.494;7.608;2022-08-19T15:15:06;22.60;99.90
20680;DHT22;10499;47.494;7.608;2022-08-19T15:17:32;22.40;99.90
20680;DHT22;10499;47.494;7.608;2022-08-19T15:19:58;22.10;99.90
20680;DHT22;10499;47.494;7.608;2022-08-19T15:22:24;22.00;99.90
20680;DHT22;10499;47.494;7.608;2022-08-19T15:24:49;21.90;99.90
20680;DHT22;10499;47.494;7.608;2022-08-19T15:27:15;21.80;99.90
20680;DHT22;10499;47.494;7.608;2022-08-19T15:29:41;21.80;99.90
20680;DHT22;10499;47.494;7.608;2022-08-19T15:32:07;21.70;99.90
20680;DHT22;10499;47.494;7.608;2022-08-19T15:34:34;21.70;99.90
20680;DHT22;10499;47.494;7.608;2022-08-19T15:37:00;21.70;99.90
20680;DHT22;10499;47.494;7.608;2022-08-19T15:39:25;21.80;99.90
20680;DHT22;10499;47.494;7.608;2022-08-19T15:41:51;21.80;99.90
20680;DHT22;10499;47.494;7.608;2022-08-19T15:44:18;21.80;99.90
20680;DHT22;10499;47.494;7.608;2022-08-19T15:46:47;21.70;99.90